createdAt,value
2022-10-11T04:11:45.464Z,100275.84
2022-10-11T04:14:11.571Z,100276.92
2022-10-11T04:16:40.650Z,100284.77
2022-10-11T04:19:06.812Z,100290.98
2022-10-11T04:21:32.929Z,100293.90
2022-10-11T04:23:59.097Z,100300.40
2022-10-11T04:26:26.542Z,100302.63
2022-10-11T04:28:53.101Z,100306.61
2022-10-11T04:31:19.466Z,100306.65
2022-10-11T04:33:45.729Z,100305.30
2022-10-11T04:36:11.883Z,100312.88
2022-10-11T04:38:37.992Z,100311.75
2022-10-11T04:41:09.231Z,100313.48
2022-10-11T04:43:35.974Z,100311.48
2022-10-11T04:46:02.806Z,100318.85
2022-10-11T04:48:29.263Z,100322.65
2022-10-11T04:50:55.670Z,100325.52
2022-10-11T04:53:21.883Z,100328.71
2022-10-11T04:56:06.838Z,100334.12
2022-10-11T04:58:34.228Z,100334.35
2022-10-11T05:01:00.906Z,100338.34
2022-10-11T05:03:27.551Z,100335.63
2022-10-11T05:05:53.947Z,100339.23
2022-10-11T05:08:22.434Z,100340.94
2022-10-11T05:11:00.355Z,100345.48
2022-10-11T05:13:28.077Z,100349.10
2022-10-11T05:15:54.521Z,100349.77
2022-10-11T05:18:21.552Z,100354.42
2022-10-11T05:20:48.026Z,100358.23
2022-10-11T05:23:14.788Z,100364.05
2022-10-11T05:25:41.365Z,100364.95
2022-10-11T05:28:07.646Z,100365.61
2022-10-11T05:30:33.810Z,100374.60
2022-10-11T05:33:00.093Z,100376.20
2022-10-11T05:35:26.213Z,100376.94
2022-10-11T05:37:52.410Z,100380.66
2022-10-11T05:40:18.599Z,100379.54
2022-10-11T05:42:44.727Z,100388.31
2022-10-11T05:45:10.887Z,100390.59
2022-10-11T05:47:36.991Z,100396.06
2022-10-11T05:50:03.254Z,100398.29
2022-10-11T05:52:34.105Z,100404.13
2022-10-11T05:55:00.405Z,100406.59
2022-10-11T05:57:26.622Z,100410.42
2022-10-11T05:59:52.754Z,100417.23
2022-10-11T06:02:18.928Z,100422.98
2022-10-11T06:04:45.359Z,100427.36
2022-10-11T06:07:11.481Z,100435.02
2022-10-11T06:09:38.854Z,100436.10
2022-10-11T06:12:05.580Z,100440.70
2022-10-11T06:14:31.724Z,100446.61
2022-10-11T06:16:57.885Z,100452.79
2022-10-11T06:19:24.142Z,100449.50
2022-10-11T06:21:50.907Z,100456.77
2022-10-11T06:24:18.056Z,100462.73
2022-10-11T06:26:44.159Z,100462.17
2022-10-11T06:29:10.667Z,100469.36
2022-10-11T06:31:36.886Z,100474.37
2022-10-11T06:34:03.049Z,100478.17
2022-10-11T06:36:29.248Z,100485.46
2022-10-11T06:38:55.442Z,100489.70
2022-10-11T06:41:26.693Z,100493.92
2022-10-11T06:43:53.236Z,100496.12
2022-10-11T06:46:21.189Z,100498.28
2022-10-11T06:48:48.503Z,100504.63
2022-10-11T06:51:17.443Z,100504.33
2022-10-11T06:53:48.553Z,100508.44
2022-10-11T06:56:14.712Z,100511.28
2022-10-11T06:58:40.905Z,100517.58
2022-10-11T07:01:10.828Z,100517.55
2022-10-11T07:03:37.685Z,100520.63
2022-10-11T07:06:16.948Z,100524.30
2022-10-11T07:08:43.236Z,100523.79
2022-10-11T07:11:15.517Z,100530.70
2022-10-11T07:13:42.060Z,100531.80
2022-10-11T07:16:11.435Z,100537.33
2022-10-11T07:18:38.435Z,100545.48
2022-10-11T07:21:07.030Z,100542.58
2022-10-11T07:23:33.919Z,100550.25
2022-10-11T07:26:00.294Z,100558.30
2022-10-11T07:28:28.196Z,100559.06
2022-10-11T07:30:54.487Z,100561.81
2022-10-11T07:33:20.585Z,100565.80
2022-10-11T07:35:48.813Z,100567.69
2022-10-11T07:38:15.740Z,100577.52
2022-10-11T07:40:43.760Z,100573.10
2022-10-11T07:43:11.559Z,100583.27
2022-10-11T07:45:38.814Z,100592.95
2022-10-11T07:48:05.451Z,100593.97
2022-10-11T07:50:32.489Z,100597.61
2022-10-11T07:52:58.732Z,100602.64
2022-10-11T07:55:26.695Z,100604.45
2022-10-11T07:57:56.292Z,100607.55
2022-10-11T08:00:22.845Z,100610.02
2022-10-11T08:02:49.277Z,100612.89
2022-10-11T08:05:15.980Z,100620.40
2022-10-11T08:07:42.219Z,100620.79
2022-10-11T08:10:09.329Z,100624.42
2022-10-11T08:12:35.495Z,100625.00
2022-10-11T08:15:01.725Z,100622.67
2022-10-11T08:17:29.789Z,100629.02
2022-10-11T08:19:57.354Z,100630.80
2022-10-11T08:22:23.435Z,100631.93
2022-10-11T08:24:49.534Z,100632.00
2022-10-11T08:27:15.676Z,100632.91
2022-10-11T08:29:41.839Z,100629.27
2022-10-11T08:32:11.323Z,100637.39
2022-10-11T08:34:40.022Z,100634.23
2022-10-11T08:37:06.162Z,100639.55
2022-10-11T08:39:32.318Z,100639.56
2022-10-11T08:42:04.291Z,100641.23
2022-10-11T08:45:09.902Z,100647.06
2022-10-11T08:47:39.704Z,100648.25
2022-10-11T08:50:07.657Z,100654.48
2022-10-11T08:52:36.800Z,100658.42
2022-10-11T08:55:41.232Z,100659.31
2022-10-11T08:58:11.690Z,100664.90
2022-10-11T09:00:40.091Z,100666.27
2022-10-11T09:03:38.241Z,100669.03
2022-10-11T09:06:36.619Z,100675.54
2022-10-11T09:09:34.736Z,100678.59
2022-10-11T09:12:14.246Z,100677.89
2022-10-11T09:14:50.315Z,100681.84
2022-10-11T09:17:44.610Z,100684.20
2022-10-11T09:20:26.693Z,100686.73
2022-10-11T09:23:23.802Z,100697.01
2022-10-11T09:26:06.916Z,100698.17
2022-10-11T09:29:01.246Z,100704.59
2022-10-11T09:31:28.919Z,100708.92
2022-10-11T09:33:55.238Z,100708.25
2022-10-11T09:36:44.111Z,100704.98
2022-10-11T09:39:33.185Z,100713.89
2022-10-11T09:42:00.985Z,100713.22
2022-10-11T09:44:29.596Z,100715.07
2022-10-11T09:46:56.832Z,100710.76
2022-10-11T09:49:57.150Z,100718.11
2022-10-11T09:52:24.921Z,100720.77
2022-10-11T09:54:57.316Z,100716.63
2022-10-11T09:57:25.671Z,100723.73
2022-10-11T10:00:02.135Z,100730.24
2022-10-11T10:02:46.712Z,100730.20
2022-10-11T10:05:15.081Z,100734.86
2022-10-11T10:07:57.381Z,100732.57
2022-10-11T10:10:26.773Z,100736.63
2022-10-11T10:13:00.084Z,100739.39
2022-10-11T10:15:31.065Z,100734.16
2022-10-11T10:18:02.883Z,100738.02
2022-10-11T10:20:34.788Z,100747.33
2022-10-11T10:23:08.909Z,100752.31
2022-10-11T10:25:43.045Z,100750.97
2022-10-11T10:28:26.442Z,100751.25
2022-10-11T10:30:57.719Z,100753.46
2022-10-11T10:33:29.178Z,100759.13
2022-10-11T10:36:16.801Z,100755.36
2022-10-11T10:38:52.340Z,100757.73
2022-10-11T10:41:19.007Z,100762.17
2022-10-11T10:44:01.307Z,100756.83
2022-10-11T10:47:00.652Z,100758.23
2022-10-11T10:49:54.084Z,100758.14
2022-10-11T10:52:44.268Z,100760.77
2022-10-11T10:55:42.465Z,100762.15
2022-10-11T10:58:27.329Z,100763.41
2022-10-11T11:01:01.569Z,100764.86
2022-10-11T11:03:45.592Z,100764.95
2022-10-11T11:06:22.919Z,100764.26
2022-10-11T11:08:57.359Z,100771.80
2022-10-11T11:11:48.668Z,100766.25
2022-10-11T11:14:30.820Z,100767.14
2022-10-11T11:17:11.482Z,100760.45
2022-10-11T11:19:57.760Z,100765.91
2022-10-11T11:22:30.503Z,100772.55
2022-10-11T11:25:30.917Z,100773.14
2022-10-11T11:28:22.604Z,100777.77
2022-10-11T11:31:05.833Z,100771.94
2022-10-11T11:33:49.139Z,100769.90
2022-10-11T11:36:28.382Z,100770.89
2022-10-11T11:39:01.897Z,100766.98
2022-10-11T11:41:42.719Z,100775.13
2022-10-11T11:44:16.264Z,100774.97
2022-10-11T11:46:58.309Z,100769.87
2022-10-11T11:49:31.885Z,100771.94
2022-10-11T11:51:59.859Z,100774.48
2022-10-11T11:54:44.122Z,100774.80
2022-10-11T11:57:43.016Z,100780.88
2022-10-11T12:00:12.718Z,100772.82
2022-10-11T12:02:47.647Z,100781.75
2022-10-11T12:05:17.826Z,100783.98
2022-10-11T12:08:17.713Z,100784.10
2022-10-11T12:10:49.732Z,100781.05
2022-10-11T12:13:20.831Z,100781.45
2022-10-11T12:16:02.950Z,100780.93
2022-10-11T12:18:30.909Z,100782.30
2022-10-11T12:21:17.764Z,100783.30
2022-10-11T12:23:49.579Z,100786.96
2022-10-11T12:26:36.176Z,100774.48
2022-10-11T12:29:18.605Z,100778.73
2022-10-11T12:31:48.755Z,100774.48
2022-10-11T12:34:33.747Z,100769.02
2022-10-11T12:37:22.217Z,100762.83
2022-10-11T12:39:59.535Z,100759.73
2022-10-11T12:42:28.343Z,100756.62
2022-10-11T12:48:56.408Z,100746.27
2022-10-11T12:51:33.240Z,100735.73
2022-10-11T12:54:31.002Z,100738.27
2022-10-11T12:57:00.704Z,100756.17
2022-10-11T12:59:30.343Z,100740.16
2022-10-11T13:01:59.130Z,100715.17
2022-10-11T13:04:29.294Z,100710.41
2022-10-11T13:07:06.598Z,100731.80
2022-10-11T13:09:41.585Z,100737.84
2022-10-11T13:12:17.473Z,100748.77
2022-10-11T13:14:47.593Z,100752.82
2022-10-11T13:17:24.945Z,100744.14
2022-10-11T13:20:19.028Z,100739.59
2022-10-11T13:22:48.980Z,100741.00
2022-10-11T13:25:18.895Z,100738.23
2022-10-11T13:27:47.470Z,100735.52
2022-10-11T13:30:20.880Z,100737.91
2022-10-11T13:32:47.590Z,100734.92
2022-10-11T13:35:24.828Z,100745.02
2022-10-11T13:37:51.203Z,100741.80
2022-10-11T13:40:20.247Z,100749.58
2022-10-11T13:42:48.553Z,100746.27
2022-10-11T13:45:19.549Z,100738.54
2022-10-11T13:47:49.071Z,100740.11
2022-10-11T13:50:15.240Z,100740.90
2022-10-11T13:52:59.164Z,100744.23
2022-10-11T13:55:41.357Z,100742.00
2022-10-11T13:58:19.264Z,100707.05
2022-10-11T14:01:16.055Z,100713.27
2022-10-11T14:03:46.056Z,100726.19
2022-10-11T14:06:12.701Z,100706.15
2022-10-11T14:08:46.440Z,100721.77
2022-10-11T14:11:13.644Z,100717.45
2022-10-11T14:13:49.247Z,100701.38
2022-10-11T14:16:15.355Z,100682.89
2022-10-11T14:18:49.508Z,100678.92
2022-10-11T14:21:18.407Z,100665.65
2022-10-11T14:23:46.197Z,100658.89
2022-10-11T14:26:18.566Z,100668.02
2022-10-11T14:28:50.443Z,100675.52
2022-10-11T14:31:16.894Z,100681.70
2022-10-11T14:33:43.637Z,100689.45
2022-10-11T14:36:09.769Z,100693.64
2022-10-11T14:38:36.080Z,100705.11
2022-10-11T14:41:02.298Z,100702.75
2022-10-11T14:43:28.460Z,100695.27
2022-10-11T14:45:54.653Z,100705.70
2022-10-11T14:48:43.045Z,100712.70
2022-10-11T14:51:11.184Z,100717.15
2022-10-11T14:53:41.255Z,100724.78
2022-10-11T14:56:07.760Z,100722.30
2022-10-11T14:58:34.079Z,100732.09
2022-10-11T15:01:00.181Z,100740.02
2022-10-11T15:03:26.342Z,100742.92
2022-10-11T15:05:52.652Z,100748.60
2022-10-11T15:08:19.161Z,100754.88
2022-10-11T15:10:45.286Z,100758.57
2022-10-11T15:13:11.430Z,100763.81
2022-10-11T15:15:40.180Z,100764.98
2022-10-11T15:18:10.153Z,100765.18
2022-10-11T15:20:38.912Z,100766.31
2022-10-11T15:23:08.917Z,100771.08
2022-10-11T15:25:37.375Z,100777.98
2022-10-11T15:28:04.597Z,100778.42
2022-10-11T15:30:38.515Z,100780.96
2022-10-11T15:33:07.805Z,100788.81
2022-10-11T15:35:34.105Z,100789.43
2022-10-11T15:38:00.325Z,100798.56
2022-10-11T15:40:30.963Z,100800.36
2022-10-11T15:42:57.340Z,100803.98
2022-10-11T15:45:23.777Z,100812.08
2022-10-11T15:47:50.714Z,100813.89
2022-10-11T15:50:33.262Z,100818.29
2022-10-11T15:53:02.096Z,100824.29
2022-10-11T15:55:29.316Z,100827.41
2022-10-11T15:57:56.469Z,100832.57
2022-10-11T16:00:23.722Z,100831.64
2022-10-11T16:02:51.591Z,100838.94
2022-10-11T16:05:23.552Z,100846.07
2022-10-11T16:07:51.090Z,100853.73
2022-10-11T16:10:17.595Z,100861.30
2022-10-11T16:12:43.793Z,100864.63
2022-10-11T16:15:10.323Z,100860.48
2022-10-11T16:17:37.465Z,100865.83
2022-10-11T16:20:06.037Z,100872.38
2022-10-11T16:22:33.493Z,100869.88
2022-10-11T16:25:00.046Z,100872.80
2022-10-11T16:27:26.552Z,100875.55
2022-10-11T16:29:53.109Z,100881.14
2022-10-11T16:32:20.328Z,100885.41
2022-10-11T16:34:47.020Z,100884.21
2022-10-11T16:37:13.646Z,100890.42
2022-10-11T16:39:39.799Z,100891.75
2022-10-11T16:42:06.062Z,100896.86
2022-10-11T16:44:32.432Z,100899.52
2022-10-11T16:46:59.470Z,100901.87
2022-10-11T16:49:27.613Z,100903.33
2022-10-11T16:51:56.178Z,100903.40
2022-10-11T16:54:22.346Z,100911.14
2022-10-11T16:56:49.305Z,100910.40
2022-10-11T16:59:16.633Z,100912.93
2022-10-11T17:01:44.334Z,100913.39
2022-10-11T17:04:11.556Z,100916.38
2022-10-11T17:06:39.455Z,100921.52
2022-10-11T17:09:06.962Z,100923.81
2022-10-11T17:11:33.401Z,100925.16
2022-10-11T17:14:00.480Z,100927.45
2022-10-11T17:16:27.030Z,100929.63
2022-10-11T17:18:53.203Z,100936.86
2022-10-11T17:21:21.248Z,100927.80
2022-10-11T17:23:48.383Z,100931.31
2022-10-11T17:26:19.500Z,100934.10
2022-10-11T17:28:45.883Z,100939.98
2022-10-11T17:31:12.395Z,100936.73
2022-10-11T17:33:38.558Z,100938.86
2022-10-11T17:36:23.425Z,100941.20
2022-10-11T17:38:51.038Z,100942.56
2022-10-11T17:41:17.666Z,100944.80
2022-10-11T17:43:43.923Z,100946.45
2022-10-11T17:46:12.640Z,100949.70
2022-10-11T17:48:39.270Z,100954.05
2022-10-11T17:51:10.764Z,100958.27
2022-10-11T17:53:37.116Z,100956.98
2022-10-11T17:56:09.072Z,100964.59
2022-10-11T17:58:35.822Z,100963.15
2022-10-11T18:01:04.948Z,100965.19
2022-10-11T18:03:31.797Z,100965.13
2022-10-11T18:05:58.286Z,100964.16
2022-10-11T18:08:24.650Z,100966.20
2022-10-11T18:10:50.812Z,100969.39
2022-10-11T18:13:17.138Z,100970.62
2022-10-11T18:15:43.289Z,100967.27
2022-10-11T18:18:11.000Z,100976.23
2022-10-11T18:20:37.524Z,100976.13
2022-10-11T18:23:03.649Z,100979.61
2022-10-11T18:25:32.654Z,100979.55
2022-10-11T18:27:58.787Z,100980.08
2022-10-11T18:30:25.120Z,100980.03
2022-10-11T18:32:51.220Z,100980.73
2022-10-11T18:35:17.369Z,100980.52
2022-10-11T18:37:43.498Z,100984.75
2022-10-11T18:40:09.814Z,100988.08
2022-10-11T18:42:35.979Z,100987.91
2022-10-11T18:45:02.268Z,100990.39
2022-10-11T18:47:28.469Z,100993.75
2022-10-11T18:49:54.652Z,100992.96
2022-10-11T18:52:20.799Z,100993.31
2022-10-11T18:54:47.058Z,100995.39
2022-10-11T18:57:13.185Z,100998.15
2022-10-11T18:59:39.303Z,101000.79
2022-10-11T19:02:05.744Z,101002.96
2022-10-11T19:04:33.559Z,101005.20
2022-10-11T19:06:59.771Z,101007.95
2022-10-11T19:09:27.554Z,101010.35
2022-10-11T19:11:55.407Z,101014.77
2022-10-11T19:14:30.795Z,101015.38
2022-10-11T19:16:57.606Z,101017.73
2022-10-11T19:19:28.971Z,101019.53
2022-10-11T19:21:55.658Z,101021.25
2022-10-11T19:24:25.010Z,101024.75
2022-10-11T19:26:52.387Z,101027.76
2022-10-11T19:29:21.721Z,101030.38
2022-10-11T19:31:50.498Z,101032.73
2022-10-11T19:34:18.174Z,101034.15
2022-10-11T19:36:44.691Z,101035.31
2022-10-11T19:39:15.649Z,101039.98
2022-10-11T19:41:43.359Z,101042.11
2022-10-11T19:44:11.117Z,101041.44
2022-10-11T19:46:51.025Z,101043.96
2022-10-11T19:49:21.708Z,101046.66
2022-10-11T19:51:47.893Z,101046.50
2022-10-11T19:54:14.754Z,101048.73
2022-10-11T19:56:41.805Z,101048.46
2022-10-11T19:59:10.376Z,101052.37
2022-10-11T20:01:37.043Z,101054.39
2022-10-11T20:04:05.801Z,101053.85
2022-10-11T20:06:38.115Z,101054.30
2022-10-11T20:09:28.018Z,101059.04
2022-10-11T20:11:53.204Z,101056.17
2022-10-11T20:14:19.762Z,101055.75
2022-10-11T20:16:49.202Z,101064.02
2022-10-11T20:19:15.350Z,101064.61
2022-10-11T20:21:41.531Z,101061.78
2022-10-11T20:24:07.848Z,101066.08
2022-10-11T20:26:34.261Z,101065.40
2022-10-11T20:29:00.396Z,101063.80
2022-10-11T20:31:32.577Z,101064.14
2022-10-11T20:34:02.677Z,101064.91
2022-10-11T20:36:29.868Z,101064.88
2022-10-11T20:38:57.503Z,101063.87
2022-10-11T20:41:26.706Z,101065.39
2022-10-11T20:43:56.026Z,101068.34
2022-10-11T20:46:24.676Z,101071.61
2022-10-11T20:49:01.555Z,101072.81
2022-10-11T20:51:29.897Z,101069.99
2022-10-11T20:53:57.282Z,101071.85
2022-10-11T20:56:23.483Z,101073.50
2022-10-11T20:58:54.226Z,101076.05
2022-10-11T21:01:23.206Z,101075.04
2022-10-11T21:03:49.695Z,101073.86
2022-10-11T21:06:16.964Z,101075.88
2022-10-11T21:08:43.954Z,101078.67
2022-10-11T21:11:10.889Z,101079.90
2022-10-11T21:13:37.380Z,101082.09
2022-10-11T21:16:19.541Z,101083.51
2022-10-11T21:18:51.124Z,101082.09
2022-10-11T21:21:17.742Z,101083.27
2022-10-11T21:23:43.933Z,101079.20
2022-10-11T21:26:12.913Z,101083.18
2022-10-11T21:28:39.957Z,101080.85
2022-10-11T21:31:08.901Z,101083.89
2022-10-11T21:33:36.000Z,101085.45
2022-10-11T21:36:04.738Z,101085.60
2022-10-11T21:38:31.195Z,101085.03
2022-10-11T21:40:57.402Z,101091.60
2022-10-11T21:43:24.184Z,101089.67
2022-10-11T21:45:50.578Z,101089.87
2022-10-11T21:48:17.152Z,101090.55
2022-10-11T21:50:43.259Z,101093.20
2022-10-11T21:53:09.365Z,101094.59
2022-10-11T21:55:35.552Z,101096.40
2022-10-11T21:58:01.815Z,101094.50
2022-10-11T22:00:27.956Z,101090.86
2022-10-11T22:02:54.221Z,101090.75
2022-10-11T22:05:20.430Z,101092.60
2022-10-11T22:07:46.521Z,101092.95
2022-10-11T22:10:12.663Z,101095.48
2022-10-11T22:12:38.813Z,101093.13
2022-10-11T22:15:05.868Z,101097.73
2022-10-11T22:17:32.020Z,101099.16
2022-10-11T22:19:58.227Z,101096.52
2022-10-11T22:22:24.374Z,101098.52
2022-10-11T22:24:50.519Z,101098.70
2022-10-11T22:27:16.611Z,101095.90
2022-10-11T22:29:42.786Z,101097.52
2022-10-11T22:32:08.951Z,101097.48
2022-10-11T22:34:35.123Z,101096.38
2022-10-11T22:37:01.278Z,101097.64
2022-10-11T22:39:28.844Z,101095.07
2022-10-11T22:41:54.951Z,101100.14
2022-10-11T22:44:21.346Z,101099.30
2022-10-11T22:46:47.514Z,101098.45
2022-10-11T22:49:13.638Z,101098.66
2022-10-11T22:51:39.787Z,101100.83
2022-10-11T22:54:05.947Z,101100.66
2022-10-11T22:56:32.063Z,101100.40
2022-10-11T22:58:58.728Z,101096.42
2022-10-11T23:01:24.840Z,101098.07
2022-10-11T23:03:51.074Z,101097.14
2022-10-11T23:06:17.532Z,101095.27
2022-10-11T23:08:43.765Z,101090.97
2022-10-11T23:14:40.632Z,101086.42
2022-10-11T23:17:06.939Z,101084.86
2022-10-11T23:19:33.073Z,101084.91
2022-10-11T23:21:59.201Z,101083.17
2022-10-11T23:24:25.360Z,101084.01
2022-10-11T23:26:51.471Z,101086.42
2022-10-11T23:29:17.592Z,101081.84
2022-10-11T23:31:45.554Z,101082.92
2022-10-11T23:34:13.285Z,101077.61
2022-10-11T23:36:39.407Z,101075.42
2022-10-11T23:39:05.537Z,101075.83
2022-10-11T23:41:31.673Z,101074.52
2022-10-11T23:43:58.159Z,101069.54
2022-10-11T23:46:24.525Z,101073.36
2022-10-11T23:48:50.786Z,101074.70
2022-10-11T23:51:16.950Z,101070.31
2022-10-11T23:53:43.107Z,101066.92
2022-10-11T23:56:11.021Z,101063.86
2022-10-11T23:58:37.442Z,101062.91
